SBBU Informação do Aeroporto

Informação da Pista
Runway 14 Length 4925 ft width 115 ft
Elevation 0 ft Threshold 0 ft Heading 0
Runway 32 Length 4925 ft Width 115 ft
Elevation 0 ft Threshold 0 ft Heading 0
Frequencias do Aeroporto
Tipo AFIS Nome RDO Frequência 121.3 MHZ
Tipo APP Nome APP Frequência 121.3 MHZ
Tipo ATIS Nome ATIS Frequência 127.875 MHZ
Navaids Aeroporto
Tipo NDB Name Bauru Frequência 380 KHZ
Tempo do Aeroporto & NOTAM
ADDS - METARS form results

(0614 UTC 10 December 2019)
Data provider http://aviationweather.gov/metar/data/
 
Forecast for: SBBU (BAURU , BR)
Text: TAF SBBU 092230Z 1000/1012 13006KT CAVOK TN22/1008Z TX26/1012Z RMK PEL
Forecast period: 0000 to 1200 UTC 10 December 2019
Forecast type: FROM: standard forecast or significant change
Winds: from the SE (130 degrees) at 7 MPH (6 knots; 3.1 m/s)
Visibility: 6 or more miles 10+ km)
Ceiling: unknown
Clouds: missing
Weather: no significant weather forecast for this period